sensor_id;sensor_type;location;lat;lon;timestamp;P1;durP1;ratioP1;P2;durP2;ratioP2
40623;SDS011;26325;48.594;11.650;2022-07-10T00:01:58;3.92;;;3.60;;
40623;SDS011;26325;48.594;11.650;2022-07-10T00:06:49;4.60;;;4.20;;
40623;SDS011;26325;48.594;11.650;2022-07-10T00:09:17;4.18;;;3.88;;
40623;SDS011;26325;48.594;11.650;2022-07-10T00:14:10;4.10;;;3.80;;
40623;SDS011;26325;48.594;11.650;2022-07-10T00:19:02;5.05;;;4.50;;
40623;SDS011;26325;48.594;11.650;2022-07-10T00:23:53;4.57;;;4.18;;
40623;SDS011;26325;48.594;11.650;2022-07-10T00:28:46;4.30;;;3.97;;
40623;SDS011;26325;48.594;11.650;2022-07-10T00:36:08;4.60;;;4.30;;
40623;SDS011;26325;48.594;11.650;2022-07-10T00:38:35;4.32;;;4.03;;
40623;SDS011;26325;48.594;11.650;2022-07-10T00:43:26;3.85;;;3.65;;
40623;SDS011;26325;48.594;11.650;2022-07-10T00:48:17;4.43;;;4.03;;
40623;SDS011;26325;48.594;11.650;2022-07-10T00:53:11;4.15;;;3.85;;
40623;SDS011;26325;48.594;11.650;2022-07-10T00:55:40;3.90;;;3.60;;
40623;SDS011;26325;48.594;11.650;2022-07-10T00:58:09;3.80;;;3.40;;
40623;SDS011;26325;48.594;11.650;2022-07-10T01:00:36;4.45;;;4.15;;
40623;SDS011;26325;48.594;11.650;2022-07-10T01:03:03;4.25;;;3.95;;
40623;SDS011;26325;48.594;11.650;2022-07-10T01:05:31;4.18;;;3.78;;
40623;SDS011;26325;48.594;11.650;2022-07-10T01:07:57;4.05;;;3.75;;
40623;SDS011;26325;48.594;11.650;2022-07-10T01:12:48;4.18;;;3.88;;
40623;SDS011;26325;48.594;11.650;2022-07-10T01:17:44;4.20;;;3.80;;
40623;SDS011;26325;48.594;11.650;2022-07-10T01:20:16;4.40;;;4.00;;
40623;SDS011;26325;48.594;11.650;2022-07-10T01:22:44;3.70;;;3.50;;
40623;SDS011;26325;48.594;11.650;2022-07-10T01:27:36;3.58;;;3.38;;
40623;SDS011;26325;48.594;11.650;2022-07-10T01:32:36;4.03;;;3.78;;
40623;SDS011;26325;48.594;11.650;2022-07-10T01:35:02;4.00;;;3.70;;
40623;SDS011;26325;48.594;11.650;2022-07-10T01:39:56;3.80;;;3.60;;
40623;SDS011;26325;48.594;11.650;2022-07-10T01:42:21;3.72;;;3.53;;
40623;SDS011;26325;48.594;11.650;2022-07-10T01:47:15;3.50;;;3.30;;
40623;SDS011;26325;48.594;11.650;2022-07-10T01:49:40;3.45;;;3.17;;
40623;SDS011;26325;48.594;11.650;2022-07-10T01:54:32;3.75;;;3.55;;
40623;SDS011;26325;48.594;11.650;2022-07-10T01:56:58;3.13;;;2.92;;
40623;SDS011;26325;48.594;11.650;2022-07-10T01:59:26;3.40;;;3.20;;
40623;SDS011;26325;48.594;11.650;2022-07-10T02:01:54;3.55;;;3.35;;
40623;SDS011;26325;48.594;11.650;2022-07-10T02:04:24;3.58;;;3.30;;
40623;SDS011;26325;48.594;11.650;2022-07-10T02:07:15;3.73;;;3.30;;
40623;SDS011;26325;48.594;11.650;2022-07-10T02:09:46;3.30;;;3.10;;
40623;SDS011;26325;48.594;11.650;2022-07-10T02:12:13;3.20;;;3.00;;
40623;SDS011;26325;48.594;11.650;2022-07-10T02:14:40;3.58;;;3.28;;
40623;SDS011;26325;48.594;11.650;2022-07-10T02:17:07;3.35;;;3.10;;
40623;SDS011;26325;48.594;11.650;2022-07-10T02:19:33;3.97;;;3.67;;
40623;SDS011;26325;48.594;11.650;2022-07-10T02:22:02;3.58;;;3.38;;
40623;SDS011;26325;48.594;11.650;2022-07-10T02:24:28;3.47;;;3.20;;
40623;SDS011;26325;48.594;11.650;2022-07-10T02:29:20;3.58;;;3.38;;
40623;SDS011;26325;48.594;11.650;2022-07-10T02:31:46;3.40;;;3.17;;
40623;SDS011;26325;48.594;11.650;2022-07-10T02:36:43;3.60;;;3.28;;
40623;SDS011;26325;48.594;11.650;2022-07-10T02:41:39;4.00;;;3.33;;
40623;SDS011;26325;48.594;11.650;2022-07-10T02:44:06;7.47;;;3.20;;
40623;SDS011;26325;48.594;11.650;2022-07-10T02:48:57;4.07;;;3.22;;
40623;SDS011;26325;48.594;11.650;2022-07-10T02:53:52;3.15;;;2.95;;
40623;SDS011;26325;48.594;11.650;2022-07-10T02:56:20;3.45;;;3.15;;
40623;SDS011;26325;48.594;11.650;2022-07-10T02:58:48;3.38;;;3.08;;
40623;SDS011;26325;48.594;11.650;2022-07-10T03:03:39;2.78;;;2.58;;
40623;SDS011;26325;48.594;11.650;2022-07-10T03:11:02;2.28;;;2.17;;
40623;SDS011;26325;48.594;11.650;2022-07-10T03:13:34;2.58;;;2.45;;
40623;SDS011;26325;48.594;11.650;2022-07-10T03:16:03;3.15;;;2.95;;
40623;SDS011;26325;48.594;11.650;2022-07-10T03:18:31;3.55;;;3.10;;
40623;SDS011;26325;48.594;11.650;2022-07-10T03:23:25;2.72;;;2.53;;
40623;SDS011;26325;48.594;11.650;2022-07-10T03:25:51;3.15;;;2.85;;
40623;SDS011;26325;48.594;11.650;2022-07-10T03:28:26;3.20;;;2.90;;
40623;SDS011;26325;48.594;11.650;2022-07-10T03:30:59;2.90;;;2.70;;
40623;SDS011;26325;48.594;11.650;2022-07-10T03:33:31;3.17;;;2.90;;
40623;SDS011;26325;48.594;11.650;2022-07-10T03:35:56;2.80;;;2.60;;
40623;SDS011;26325;48.594;11.650;2022-07-10T03:40:47;2.80;;;2.60;;
40623;SDS011;26325;48.594;11.650;2022-07-10T03:43:15;2.90;;;2.70;;
40623;SDS011;26325;48.594;11.650;2022-07-10T03:48:06;3.15;;;2.67;;
40623;SDS011;26325;48.594;11.650;2022-07-10T03:52:58;3.33;;;3.03;;
40623;SDS011;26325;48.594;11.650;2022-07-10T03:58:11;2.97;;;2.83;;
40623;SDS011;26325;48.594;11.650;2022-07-10T04:03:07;3.35;;;3.15;;
40623;SDS011;26325;48.594;11.650;2022-07-10T04:05:33;3.05;;;2.70;;
40623;SDS011;26325;48.594;11.650;2022-07-10T04:08:00;2.90;;;2.70;;
40623;SDS011;26325;48.594;11.650;2022-07-10T04:10:28;2.90;;;2.70;;
40623;SDS011;26325;48.594;11.650;2022-07-10T04:12:57;3.40;;;3.08;;
40623;SDS011;26325;48.594;11.650;2022-07-10T04:15:23;3.42;;;3.00;;
40623;SDS011;26325;48.594;11.650;2022-07-10T04:17:49;4.40;;;2.75;;
40623;SDS011;26325;48.594;11.650;2022-07-10T04:20:20;3.90;;;3.47;;
40623;SDS011;26325;48.594;11.650;2022-07-10T04:22:46;3.50;;;3.20;;
40623;SDS011;26325;48.594;11.650;2022-07-10T04:25:13;3.00;;;2.70;;
40623;SDS011;26325;48.594;11.650;2022-07-10T04:27:42;3.30;;;3.10;;
40623;SDS011;26325;48.594;11.650;2022-07-10T04:30:09;3.35;;;3.15;;
40623;SDS011;26325;48.594;11.650;2022-07-10T04:32:36;4.50;;;4.10;;
40623;SDS011;26325;48.594;11.650;2022-07-10T04:35:02;4.63;;;4.22;;
40623;SDS011;26325;48.594;11.650;2022-07-10T04:37:36;5.50;;;5.10;;
40623;SDS011;26325;48.594;11.650;2022-07-10T04:40:06;4.90;;;4.50;;
40623;SDS011;26325;48.594;11.650;2022-07-10T04:42:35;5.38;;;4.97;;
40623;SDS011;26325;48.594;11.650;2022-07-10T04:45:04;5.28;;;4.88;;
40623;SDS011;26325;48.594;11.650;2022-07-10T04:47:33;5.75;;;5.20;;
40623;SDS011;26325;48.594;11.650;2022-07-10T04:50:01;5.15;;;4.75;;
40623;SDS011;26325;48.594;11.650;2022-07-10T04:52:28;5.38;;;4.97;;
40623;SDS011;26325;48.594;11.650;2022-07-10T04:54:59;5.05;;;4.75;;
40623;SDS011;26325;48.594;11.650;2022-07-10T04:59:52;5.82;;;5.43;;
40623;SDS011;26325;48.594;11.650;2022-07-10T05:02:21;5.55;;;5.15;;
40623;SDS011;26325;48.594;11.650;2022-07-10T05:04:46;4.80;;;4.50;;
40623;SDS011;26325;48.594;11.650;2022-07-10T05:07:14;5.07;;;4.78;;
40623;SDS011;26325;48.594;11.650;2022-07-10T05:12:06;5.70;;;5.30;;
40623;SDS011;26325;48.594;11.650;2022-07-10T05:14:32;5.50;;;5.13;;
40623;SDS011;26325;48.594;11.650;2022-07-10T05:19:25;4.63;;;4.32;;
40623;SDS011;26325;48.594;11.650;2022-07-10T05:24:26;4.93;;;4.50;;
40623;SDS011;26325;48.594;11.650;2022-07-10T05:27:01;5.70;;;5.30;;
40623;SDS011;26325;48.594;11.650;2022-07-10T05:29:30;4.38;;;4.07;;
40623;SDS011;26325;48.594;11.650;2022-07-10T05:31:55;5.40;;;4.63;;
40623;SDS011;26325;48.594;11.650;2022-07-10T05:36:47;5.70;;;5.03;;
40623;SDS011;26325;48.594;11.650;2022-07-10T05:39:17;4.82;;;4.53;;
40623;SDS011;26325;48.594;11.650;2022-07-10T05:41:47;5.57;;;4.80;;
40623;SDS011;26325;48.594;11.650;2022-07-10T05:44:12;4.82;;;4.53;;
40623;SDS011;26325;48.594;11.650;2022-07-10T05:49:09;4.60;;;4.30;;
40623;SDS011;26325;48.594;11.650;2022-07-10T05:54:04;5.30;;;4.88;;
40623;SDS011;26325;48.594;11.650;2022-07-10T05:56:33;4.80;;;4.50;;
40623;SDS011;26325;48.594;11.650;2022-07-10T06:01:24;5.40;;;4.90;;
40623;SDS011;26325;48.594;11.650;2022-07-10T06:03:53;4.90;;;4.50;;
40623;SDS011;26325;48.594;11.650;2022-07-10T06:06:21;4.93;;;4.53;;
40623;SDS011;26325;48.594;11.650;2022-07-10T06:08:50;4.90;;;4.40;;
40623;SDS011;26325;48.594;11.650;2022-07-10T06:13:41;4.25;;;3.95;;
40623;SDS011;26325;48.594;11.650;2022-07-10T06:16:09;4.22;;;3.92;;
40623;SDS011;26325;48.594;11.650;2022-07-10T06:21:04;4.15;;;3.88;;
40623;SDS011;26325;48.594;11.650;2022-07-10T06:23:33;4.53;;;4.22;;
40623;SDS011;26325;48.594;11.650;2022-07-10T06:28:28;5.35;;;4.95;;
40623;SDS011;26325;48.594;11.650;2022-07-10T06:30:53;4.47;;;4.15;;
40623;SDS011;26325;48.594;11.650;2022-07-10T06:35:44;3.70;;;3.40;;
40623;SDS011;26325;48.594;11.650;2022-07-10T06:40:39;5.00;;;4.60;;
40623;SDS011;26325;48.594;11.650;2022-07-10T06:43:16;6.20;;;5.22;;
40623;SDS011;26325;48.594;11.650;2022-07-10T06:45:48;3.97;;;3.72;;
40623;SDS011;26325;48.594;11.650;2022-07-10T06:48:14;4.50;;;4.10;;
40623;SDS011;26325;48.594;11.650;2022-07-10T06:50:52;4.50;;;3.80;;
40623;SDS011;26325;48.594;11.650;2022-07-10T06:53:21;4.90;;;3.85;;
40623;SDS011;26325;48.594;11.650;2022-07-10T06:55:52;3.78;;;3.47;;
40623;SDS011;26325;48.594;11.650;2022-07-10T06:58:21;3.60;;;3.40;;
40623;SDS011;26325;48.594;11.650;2022-07-10T07:03:14;3.60;;;3.30;;
40623;SDS011;26325;48.594;11.650;2022-07-10T07:08:05;3.28;;;2.97;;
40623;SDS011;26325;48.594;11.650;2022-07-10T07:12:56;2.83;;;2.40;;
40623;SDS011;26325;48.594;11.650;2022-07-10T07:17:50;2.63;;;2.20;;
40623;SDS011;26325;48.594;11.650;2022-07-10T07:20:25;2.67;;;2.08;;
40623;SDS011;26325;48.594;11.650;2022-07-10T07:23:11;2.72;;;2.30;;
40623;SDS011;26325;48.594;11.650;2022-07-10T07:25:40;2.42;;;2.20;;
40623;SDS011;26325;48.594;11.650;2022-07-10T07:28:12;2.50;;;2.20;;
40623;SDS011;26325;48.594;11.650;2022-07-10T07:30:44;2.95;;;2.03;;
40623;SDS011;26325;48.594;11.650;2022-07-10T07:33:10;4.40;;;2.13;;
40623;SDS011;26325;48.594;11.650;2022-07-10T07:38:05;4.45;;;2.20;;
40623;SDS011;26325;48.594;11.650;2022-07-10T07:40:31;2.33;;;1.90;;
40623;SDS011;26325;48.594;11.650;2022-07-10T07:42:58;2.15;;;1.75;;
40623;SDS011;26325;48.594;11.650;2022-07-10T07:45:25;2.03;;;1.80;;
40623;SDS011;26325;48.594;11.650;2022-07-10T07:47:55;3.17;;;1.75;;
40623;SDS011;26325;48.594;11.650;2022-07-10T07:50:32;2.80;;;1.55;;
40623;SDS011;26325;48.594;11.650;2022-07-10T07:53:10;3.08;;;1.80;;
40623;SDS011;26325;48.594;11.650;2022-07-10T07:55:37;1.90;;;1.55;;
40623;SDS011;26325;48.594;11.650;2022-07-10T08:00:31;4.20;;;1.70;;
40623;SDS011;26325;48.594;11.650;2022-07-10T08:02:58;1.42;;;1.23;;
40623;SDS011;26325;48.594;11.650;2022-07-10T08:05:28;1.35;;;1.20;;
40623;SDS011;26325;48.594;11.650;2022-07-10T08:07:56;1.52;;;1.33;;
40623;SDS011;26325;48.594;11.650;2022-07-10T08:10:34;2.35;;;1.20;;
40623;SDS011;26325;48.594;11.650;2022-07-10T08:13:00;2.22;;;1.38;;
40623;SDS011;26325;48.594;11.650;2022-07-10T08:15:26;2.47;;;1.00;;
40623;SDS011;26325;48.594;11.650;2022-07-10T08:17:56;2.35;;;1.30;;
40623;SDS011;26325;48.594;11.650;2022-07-10T08:20:31;1.48;;;1.30;;
40623;SDS011;26325;48.594;11.650;2022-07-10T08:22:59;3.65;;;1.40;;
40623;SDS011;26325;48.594;11.650;2022-07-10T08:25:28;1.83;;;1.23;;
40623;SDS011;26325;48.594;11.650;2022-07-10T08:28:02;2.38;;;1.40;;
40623;SDS011;26325;48.594;11.650;2022-07-10T08:30:29;2.42;;;1.10;;
40623;SDS011;26325;48.594;11.650;2022-07-10T08:33:01;2.65;;;1.48;;
40623;SDS011;26325;48.594;11.650;2022-07-10T08:35:27;1.30;;;1.20;;
40623;SDS011;26325;48.594;11.650;2022-07-10T08:37:53;2.58;;;1.25;;
40623;SDS011;26325;48.594;11.650;2022-07-10T08:40:21;1.73;;;1.10;;
40623;SDS011;26325;48.594;11.650;2022-07-10T08:42:47;1.20;;;1.10;;
40623;SDS011;26325;48.594;11.650;2022-07-10T08:45:13;1.90;;;1.02;;
40623;SDS011;26325;48.594;11.650;2022-07-10T08:47:40;1.90;;;1.35;;
40623;SDS011;26325;48.594;11.650;2022-07-10T08:50:21;1.83;;;1.10;;
40623;SDS011;26325;48.594;11.650;2022-07-10T08:53:00;2.08;;;1.40;;
40623;SDS011;26325;48.594;11.650;2022-07-10T08:55:31;2.97;;;1.20;;
40623;SDS011;26325;48.594;11.650;2022-07-10T08:57:57;1.40;;;1.10;;
40623;SDS011;26325;48.594;11.650;2022-07-10T09:00:24;1.25;;;1.10;;
40623;SDS011;26325;48.594;11.650;2022-07-10T09:02:49;1.25;;;1.15;;
40623;SDS011;26325;48.594;11.650;2022-07-10T09:05:15;1.40;;;1.20;;
40623;SDS011;26325;48.594;11.650;2022-07-10T09:07:44;2.35;;;1.40;;
40623;SDS011;26325;48.594;11.650;2022-07-10T09:10:12;2.17;;;1.50;;
40623;SDS011;26325;48.594;11.650;2022-07-10T09:13:04;1.27;;;1.17;;
40623;SDS011;26325;48.594;11.650;2022-07-10T09:15:31;1.45;;;1.25;;
40623;SDS011;26325;48.594;11.650;2022-07-10T09:18:00;1.38;;;1.10;;
40623;SDS011;26325;48.594;11.650;2022-07-10T09:20:38;3.22;;;1.60;;
40623;SDS011;26325;48.594;11.650;2022-07-10T09:23:22;2.03;;;1.30;;
40623;SDS011;26325;48.594;11.650;2022-07-10T09:25:53;2.40;;;1.38;;
40623;SDS011;26325;48.594;11.650;2022-07-10T09:28:23;1.75;;;1.35;;
40623;SDS011;26325;48.594;11.650;2022-07-10T09:30:50;2.85;;;1.30;;
40623;SDS011;26325;48.594;11.650;2022-07-10T09:35:57;3.25;;;1.40;;
40623;SDS011;26325;48.594;11.650;2022-07-10T09:41:13;1.40;;;1.10;;
40623;SDS011;26325;48.594;11.650;2022-07-10T09:43:47;2.50;;;1.35;;
40623;SDS011;26325;48.594;11.650;2022-07-10T09:46:20;3.15;;;1.40;;
40623;SDS011;26325;48.594;11.650;2022-07-10T09:48:47;1.30;;;1.20;;
40623;SDS011;26325;48.594;11.650;2022-07-10T09:51:13;2.13;;;1.50;;
40623;SDS011;26325;48.594;11.650;2022-07-10T09:53:43;2.15;;;1.30;;
40623;SDS011;26325;48.594;11.650;2022-07-10T09:56:12;2.67;;;1.33;;
40623;SDS011;26325;48.594;11.650;2022-07-10T09:58:38;2.53;;;1.27;;
40623;SDS011;26325;48.594;11.650;2022-07-10T10:01:08;3.08;;;1.25;;
40623;SDS011;26325;48.594;11.650;2022-07-10T10:03:38;2.08;;;1.30;;
40623;SDS011;26325;48.594;11.650;2022-07-10T10:06:16;1.85;;;1.30;;
40623;SDS011;26325;48.594;11.650;2022-07-10T10:08:51;2.17;;;1.20;;
40623;SDS011;26325;48.594;11.650;2022-07-10T10:11:21;1.98;;;1.00;;
40623;SDS011;26325;48.594;11.650;2022-07-10T10:13:54;1.45;;;1.13;;
40623;SDS011;26325;48.594;11.650;2022-07-10T10:16:23;1.90;;;1.10;;
40623;SDS011;26325;48.594;11.650;2022-07-10T10:18:55;2.05;;;1.13;;
40623;SDS011;26325;48.594;11.650;2022-07-10T10:21:41;1.30;;;1.20;;
40623;SDS011;26325;48.594;11.650;2022-07-10T10:24:08;1.88;;;1.10;;
40623;SDS011;26325;48.594;11.650;2022-07-10T10:26:36;1.27;;;1.13;;
40623;SDS011;26325;48.594;11.650;2022-07-10T10:29:05;1.65;;;0.90;;
40623;SDS011;26325;48.594;11.650;2022-07-10T10:31:35;1.48;;;1.00;;
40623;SDS011;26325;48.594;11.650;2022-07-10T10:34:06;2.17;;;1.00;;
40623;SDS011;26325;48.594;11.650;2022-07-10T10:41:52;1.30;;;1.00;;
40623;SDS011;26325;48.594;11.650;2022-07-10T10:49:15;1.90;;;1.17;;
40623;SDS011;26325;48.594;11.650;2022-07-10T10:52:08;1.10;;;0.80;;
40623;SDS011;26325;48.594;11.650;2022-07-10T10:57:43;1.48;;;0.82;;
40623;SDS011;26325;48.594;11.650;2022-07-10T11:00:14;1.63;;;0.90;;
40623;SDS011;26325;48.594;11.650;2022-07-10T11:05:58;3.10;;;1.05;;
40623;SDS011;26325;48.594;11.650;2022-07-10T11:08:44;2.08;;;0.90;;
40623;SDS011;26325;48.594;11.650;2022-07-10T11:11:36;1.13;;;0.80;;
40623;SDS011;26325;48.594;11.650;2022-07-10T11:14:04;1.30;;;0.90;;
40623;SDS011;26325;48.594;11.650;2022-07-10T11:16:31;0.80;;;0.80;;
40623;SDS011;26325;48.594;11.650;2022-07-10T11:18:57;2.83;;;1.00;;
40623;SDS011;26325;48.594;11.650;2022-07-10T11:21:24;0.88;;;0.88;;
40623;SDS011;26325;48.594;11.650;2022-07-10T11:26:54;1.63;;;0.85;;
40623;SDS011;26325;48.594;11.650;2022-07-10T11:29:27;2.08;;;0.75;;
40623;SDS011;26325;48.594;11.650;2022-07-10T11:31:54;1.20;;;0.70;;
40623;SDS011;26325;48.594;11.650;2022-07-10T11:34:34;1.25;;;0.70;;
40623;SDS011;26325;48.594;11.650;2022-07-10T11:37:17;0.70;;;0.70;;
40623;SDS011;26325;48.594;11.650;2022-07-10T11:39:46;1.38;;;0.65;;
40623;SDS011;26325;48.594;11.650;2022-07-10T11:42:14;1.10;;;0.80;;
40623;SDS011;26325;48.594;11.650;2022-07-10T11:44:40;0.80;;;0.70;;
40623;SDS011;26325;48.594;11.650;2022-07-10T11:47:06;1.48;;;1.00;;
40623;SDS011;26325;48.594;11.650;2022-07-10T11:49:32;2.55;;;0.80;;
40623;SDS011;26325;48.594;11.650;2022-07-10T11:52:03;2.30;;;0.80;;
40623;SDS011;26325;48.594;11.650;2022-07-10T11:54:32;1.60;;;0.93;;
40623;SDS011;26325;48.594;11.650;2022-07-10T11:57:05;1.38;;;0.75;;
40623;SDS011;26325;48.594;11.650;2022-07-10T11:59:34;2.53;;;0.90;;
40623;SDS011;26325;48.594;11.650;2022-07-10T12:01:59;1.40;;;0.70;;
40623;SDS011;26325;48.594;11.650;2022-07-10T12:04:25;1.05;;;0.63;;
40623;SDS011;26325;48.594;11.650;2022-07-10T12:06:54;1.08;;;0.80;;
40623;SDS011;26325;48.594;11.650;2022-07-10T12:09:22;2.55;;;1.00;;
40623;SDS011;26325;48.594;11.650;2022-07-10T12:12:05;1.15;;;0.80;;
40623;SDS011;26325;48.594;11.650;2022-07-10T12:14:32;1.08;;;0.80;;
40623;SDS011;26325;48.594;11.650;2022-07-10T12:16:58;1.60;;;0.90;;
40623;SDS011;26325;48.594;11.650;2022-07-10T12:19:36;0.88;;;0.77;;
40623;SDS011;26325;48.594;11.650;2022-07-10T12:22:06;1.95;;;0.85;;
40623;SDS011;26325;48.594;11.650;2022-07-10T12:24:33;1.02;;;0.80;;
40623;SDS011;26325;48.594;11.650;2022-07-10T12:27:02;1.15;;;0.95;;
40623;SDS011;26325;48.594;11.650;2022-07-10T12:29:31;1.92;;;0.70;;
40623;SDS011;26325;48.594;11.650;2022-07-10T12:32:00;1.00;;;0.75;;
40623;SDS011;26325;48.594;11.650;2022-07-10T12:34:37;0.70;;;0.70;;
40623;SDS011;26325;48.594;11.650;2022-07-10T12:37:15;1.00;;;0.70;;
40623;SDS011;26325;48.594;11.650;2022-07-10T12:39:48;0.98;;;0.70;;
40623;SDS011;26325;48.594;11.650;2022-07-10T12:42:25;2.35;;;0.70;;
40623;SDS011;26325;48.594;11.650;2022-07-10T12:44:54;1.10;;;0.77;;
40623;SDS011;26325;48.594;11.650;2022-07-10T12:50:15;1.58;;;0.70;;
40623;SDS011;26325;48.594;11.650;2022-07-10T12:52:46;1.63;;;0.85;;
40623;SDS011;26325;48.594;11.650;2022-07-10T12:55:19;1.13;;;0.70;;
40623;SDS011;26325;48.594;11.650;2022-07-10T12:58:03;2.25;;;0.80;;
40623;SDS011;26325;48.594;11.650;2022-07-10T13:00:46;0.90;;;0.70;;
40623;SDS011;26325;48.594;11.650;2022-07-10T13:03:26;1.00;;;0.80;;
40623;SDS011;26325;48.594;11.650;2022-07-10T13:05:54;1.02;;;0.88;;
40623;SDS011;26325;48.594;11.650;2022-07-10T13:08:22;1.35;;;0.90;;
40623;SDS011;26325;48.594;11.650;2022-07-10T13:10:53;1.63;;;0.88;;
40623;SDS011;26325;48.594;11.650;2022-07-10T13:13:23;0.88;;;0.73;;
40623;SDS011;26325;48.594;11.650;2022-07-10T13:15:49;1.10;;;0.68;;
40623;SDS011;26325;48.594;11.650;2022-07-10T13:18:18;1.17;;;0.70;;
40623;SDS011;26325;48.594;11.650;2022-07-10T13:20:47;1.48;;;0.73;;
40623;SDS011;26325;48.594;11.650;2022-07-10T13:23:14;1.73;;;0.95;;
40623;SDS011;26325;48.594;11.650;2022-07-10T13:25:40;0.90;;;0.80;;
40623;SDS011;26325;48.594;11.650;2022-07-10T13:28:09;2.42;;;0.80;;
40623;SDS011;26325;48.594;11.650;2022-07-10T13:30:38;0.85;;;0.70;;
40623;SDS011;26325;48.594;11.650;2022-07-10T13:33:03;2.15;;;0.80;;
40623;SDS011;26325;48.594;11.650;2022-07-10T13:35:31;1.85;;;0.90;;
40623;SDS011;26325;48.594;11.650;2022-07-10T13:37:59;1.27;;;0.80;;
40623;SDS011;26325;48.594;11.650;2022-07-10T13:40:30;2.38;;;1.05;;
40623;SDS011;26325;48.594;11.650;2022-07-10T13:42:57;0.80;;;0.80;;
40623;SDS011;26325;48.594;11.650;2022-07-10T13:45:25;0.73;;;0.60;;
40623;SDS011;26325;48.594;11.650;2022-07-10T13:47:58;0.70;;;0.70;;
40623;SDS011;26325;48.594;11.650;2022-07-10T13:50:24;1.33;;;0.65;;
40623;SDS011;26325;48.594;11.650;2022-07-10T13:52:50;0.93;;;0.70;;
40623;SDS011;26325;48.594;11.650;2022-07-10T13:55:16;0.75;;;0.60;;
40623;SDS011;26325;48.594;11.650;2022-07-10T13:57:42;1.38;;;0.90;;
40623;SDS011;26325;48.594;11.650;2022-07-10T14:00:08;2.15;;;0.80;;
40623;SDS011;26325;48.594;11.650;2022-07-10T14:02:34;1.10;;;0.77;;
40623;SDS011;26325;48.594;11.650;2022-07-10T14:05:07;1.00;;;0.68;;
40623;SDS011;26325;48.594;11.650;2022-07-10T14:07:35;1.40;;;0.90;;
40623;SDS011;26325;48.594;11.650;2022-07-10T14:10:01;1.23;;;0.77;;
40623;SDS011;26325;48.594;11.650;2022-07-10T14:12:26;1.45;;;0.68;;
40623;SDS011;26325;48.594;11.650;2022-07-10T14:14:52;0.80;;;0.70;;
40623;SDS011;26325;48.594;11.650;2022-07-10T14:17:18;1.23;;;0.77;;
40623;SDS011;26325;48.594;11.650;2022-07-10T14:19:43;0.75;;;0.65;;
40623;SDS011;26325;48.594;11.650;2022-07-10T14:22:09;1.05;;;0.80;;
40623;SDS011;26325;48.594;11.650;2022-07-10T14:24:35;0.93;;;0.60;;
40623;SDS011;26325;48.594;11.650;2022-07-10T14:27:00;0.95;;;0.70;;
40623;SDS011;26325;48.594;11.650;2022-07-10T14:29:27;0.68;;;0.60;;
40623;SDS011;26325;48.594;11.650;2022-07-10T14:32:02;0.68;;;0.68;;
40623;SDS011;26325;48.594;11.650;2022-07-10T14:34:34;1.50;;;0.80;;
40623;SDS011;26325;48.594;11.650;2022-07-10T14:37:01;2.00;;;1.00;;
40623;SDS011;26325;48.594;11.650;2022-07-10T14:39:29;1.73;;;0.80;;
40623;SDS011;26325;48.594;11.650;2022-07-10T14:41:55;3.25;;;1.10;;
40623;SDS011;26325;48.594;11.650;2022-07-10T14:44:23;1.33;;;0.80;;
40623;SDS011;26325;48.594;11.650;2022-07-10T14:46:49;0.90;;;0.82;;
40623;SDS011;26325;48.594;11.650;2022-07-10T14:49:14;0.80;;;0.80;;
40623;SDS011;26325;48.594;11.650;2022-07-10T14:51:42;2.42;;;0.60;;
40623;SDS011;26325;48.594;11.650;2022-07-10T14:54:08;1.75;;;0.60;;
40623;SDS011;26325;48.594;11.650;2022-07-10T14:56:34;1.13;;;0.73;;
40623;SDS011;26325;48.594;11.650;2022-07-10T14:59:00;1.20;;;0.55;;
40623;SDS011;26325;48.594;11.650;2022-07-10T15:01:26;1.85;;;0.60;;
40623;SDS011;26325;48.594;11.650;2022-07-10T15:03:51;0.70;;;0.60;;
40623;SDS011;26325;48.594;11.650;2022-07-10T15:06:20;1.00;;;0.70;;
40623;SDS011;26325;48.594;11.650;2022-07-10T15:08:46;1.02;;;0.70;;
40623;SDS011;26325;48.594;11.650;2022-07-10T15:11:18;0.82;;;0.60;;
40623;SDS011;26325;48.594;11.650;2022-07-10T15:13:49;2.15;;;0.60;;
40623;SDS011;26325;48.594;11.650;2022-07-10T15:16:17;0.43;;;0.43;;
40623;SDS011;26325;48.594;11.650;2022-07-10T15:18:43;1.85;;;0.60;;
40623;SDS011;26325;48.594;11.650;2022-07-10T15:21:08;1.13;;;0.70;;
40623;SDS011;26325;48.594;11.650;2022-07-10T15:23:36;1.73;;;0.60;;
40623;SDS011;26325;48.594;11.650;2022-07-10T15:26:04;2.17;;;0.70;;
40623;SDS011;26325;48.594;11.650;2022-07-10T15:28:30;1.33;;;0.60;;
40623;SDS011;26325;48.594;11.650;2022-07-10T15:30:56;1.63;;;0.60;;
40623;SDS011;26325;48.594;11.650;2022-07-10T15:33:22;2.50;;;0.70;;
40623;SDS011;26325;48.594;11.650;2022-07-10T15:35:47;1.05;;;0.60;;
40623;SDS011;26325;48.594;11.650;2022-07-10T15:38:13;1.35;;;0.70;;
40623;SDS011;26325;48.594;11.650;2022-07-10T15:40:39;0.60;;;0.60;;
40623;SDS011;26325;48.594;11.650;2022-07-10T15:43:04;1.30;;;0.85;;
40623;SDS011;26325;48.594;11.650;2022-07-10T15:45:30;0.63;;;0.57;;
40623;SDS011;26325;48.594;11.650;2022-07-10T15:47:56;0.63;;;0.63;;
40623;SDS011;26325;48.594;11.650;2022-07-10T15:50:22;0.77;;;0.50;;
40623;SDS011;26325;48.594;11.650;2022-07-10T15:52:47;0.60;;;0.60;;
40623;SDS011;26325;48.594;11.650;2022-07-10T15:55:18;1.15;;;0.70;;
40623;SDS011;26325;48.594;11.650;2022-07-10T15:57:43;0.63;;;0.50;;
40623;SDS011;26325;48.594;11.650;2022-07-10T16:00:11;0.82;;;0.52;;
40623;SDS011;26325;48.594;11.650;2022-07-10T16:02:37;0.80;;;0.60;;
40623;SDS011;26325;48.594;11.650;2022-07-10T16:05:06;1.48;;;0.70;;
40623;SDS011;26325;48.594;11.650;2022-07-10T16:07:34;1.75;;;0.60;;
40623;SDS011;26325;48.594;11.650;2022-07-10T16:10:03;0.93;;;0.60;;
40623;SDS011;26325;48.594;11.650;2022-07-10T16:12:34;0.63;;;0.60;;
40623;SDS011;26325;48.594;11.650;2022-07-10T16:15:00;0.52;;;0.52;;
40623;SDS011;26325;48.594;11.650;2022-07-10T16:17:25;0.93;;;0.70;;
40623;SDS011;26325;48.594;11.650;2022-07-10T16:22:18;3.13;;;0.63;;
40623;SDS011;26325;48.594;11.650;2022-07-10T16:24:44;1.27;;;0.60;;
40623;SDS011;26325;48.594;11.650;2022-07-10T16:27:28;0.52;;;0.50;;
40623;SDS011;26325;48.594;11.650;2022-07-10T16:29:53;0.90;;;0.55;;
40623;SDS011;26325;48.594;11.650;2022-07-10T16:32:21;1.25;;;0.57;;
40623;SDS011;26325;48.594;11.650;2022-07-10T16:34:47;0.55;;;0.50;;
40623;SDS011;26325;48.594;11.650;2022-07-10T16:37:19;1.20;;;0.70;;
40623;SDS011;26325;48.594;11.650;2022-07-10T16:39:45;0.82;;;0.70;;
40623;SDS011;26325;48.594;11.650;2022-07-10T16:44:36;1.48;;;0.77;;
40623;SDS011;26325;48.594;11.650;2022-07-10T16:49:30;0.95;;;0.50;;
40623;SDS011;26325;48.594;11.650;2022-07-10T16:54:29;0.60;;;0.50;;
40623;SDS011;26325;48.594;11.650;2022-07-10T16:59:20;1.15;;;0.52;;
40623;SDS011;26325;48.594;11.650;2022-07-10T17:01:48;1.95;;;0.60;;
40623;SDS011;26325;48.594;11.650;2022-07-10T17:06:39;0.68;;;0.55;;
40623;SDS011;26325;48.594;11.650;2022-07-10T17:09:04;1.85;;;0.60;;
40623;SDS011;26325;48.594;11.650;2022-07-10T17:13:58;1.88;;;0.60;;
40623;SDS011;26325;48.594;11.650;2022-07-10T17:18:49;0.73;;;0.60;;
40623;SDS011;26325;48.594;11.650;2022-07-10T17:21:15;0.57;;;0.55;;
40623;SDS011;26325;48.594;11.650;2022-07-10T17:23:43;1.73;;;0.50;;
40623;SDS011;26325;48.594;11.650;2022-07-10T17:26:08;0.60;;;0.50;;
40623;SDS011;26325;48.594;11.650;2022-07-10T17:30:59;1.40;;;0.60;;
40623;SDS011;26325;48.594;11.650;2022-07-10T17:33:25;0.60;;;0.55;;
40623;SDS011;26325;48.594;11.650;2022-07-10T17:38:16;0.55;;;0.45;;